Paula Anna — 5BRM4 — position and weather

sailwx.info

Track history (hours):
 
Tides and Currents Weather Stations Pressure Air Temp Water Temp Dewpoint Dewpoint Depression Visibility Wind Speed Wind Dir Waves Ship Positions

Paula Anna

Last reported at 2017-Dec-13 07:19 UTC. Time now 2017-Dec-15 11:50 UTC.
Position N 49°31' E 000°45'.

Length 107 m; draft 5.5 m.

Type: Cargo ship. MMSI: 212211000.

Date/timePositionNaut miles runAvg speedWind from/ knotsBaromVisibWave heightAir tempDewpointWater temp
2017-Dec-13 07:19N 49°31' E 000°45'0 0.0
2017-Dec-13 06:49N 49°31' E 000°45'0 0.0
2017-Dec-13 06:28N 49°31' E 000°45'0 0.0
2017-Dec-13 05:58N 49°31' E 000°45'0 0.3
2017-Dec-13 05:30N 49°31' E 000°45'4 7.2
2017-Dec-13 05:00N 49°30' E 000°40'510.3
2017-Dec-13 04:30N 49°26' E 000°35'5 9.8
2017-Dec-13 04:00N 49°29' E 000°29'612.6
2017-Dec-13 03:30N 49°26' E 000°20'611.9
2017-Dec-13 03:00N 49°26' E 000°11'510.8
2017-Dec-13 02:30N 49°27' E 000°03'5 9.6
2017-Dec-13 02:01N 49°28' W 000°04'1 0.1
2017-Dec-12 15:15N 49°28' W 000°06'0 0.0
2017-Dec-12 14:57N 49°28' W 000°06'0 0.0
2017-Dec-12 14:27N 49°28' W 000°06'0 0.0
2017-Dec-12 13:57N 49°28' W 000°06'0 0.0
2017-Dec-12 13:27N 49°28' W 000°06'0 0.0
2017-Dec-12 12:57N 49°28' W 000°06'0 0.1
2017-Dec-12 12:27N 49°28' W 000°06'0 0.1
2017-Dec-12 11:57N 49°28' W 000°06'0 0.2
2017-Dec-12 11:27N 49°28' W 000°06'0 0.0
2017-Dec-12 10:57N 49°28' W 000°06'0 0.0
2017-Dec-12 10:30N 49°28' W 000°06'0 0.0
2017-Dec-12 10:00N 49°28' W 000°06'0 0.1
2017-Dec-12 09:27N 49°28' W 000°06'1 2.0
2017-Dec-12 09:00N 49°29' W 000°07'3 6.7
2017-Dec-12 08:30N 49°30' W 000°11'3 6.8
2017-Dec-12 08:00N 49°32' W 000°16'4 7.1
2017-Dec-12 07:30N 49°34' W 000°20'4 7.5
2017-Dec-12 07:00N 49°37' W 000°25'4 7.4
2017-Dec-12 06:30N 49°40' W 000°26'4 8.1
2017-Dec-12 06:01N 49°44' W 000°26'4 7.9
2017-Dec-12 05:30N 49°48' W 000°26'4 7.5
2017-Dec-12 05:00N 49°52' W 000°24'4 7.2
2017-Dec-12 04:30N 49°55' W 000°22'3 6.9
2017-Dec-12 04:00N 49°58' W 000°20'3 6.8
2017-Dec-12 03:30N 50°02' W 000°19'3 6.8
2017-Dec-12 03:00N 50°05' W 000°17'4 6.9
2017-Dec-12 02:29N 50°08' W 000°16'3 6.9
2017-Dec-12 02:00N 50°11' W 000°13'8 7.6
2017-Dec-12 00:55N 50°19' W 000°10'3 7.8
2017-Dec-12 00:31N 50°22' W 000°08'4 7.8
2017-Dec-12 00:00N 50°26' W 000°06'4 7.3
2017-Dec-11 23:30N 50°28' W 000°01'4 8.1
2017-Dec-11 23:00N 50°29' E 000°05'4 8.3
2017-Dec-11 22:30N 50°30' E 000°12'15 8.4
2017-Dec-11 20:42N 50°35' E 000°34'3 8.5
2017-Dec-11 20:18N 50°36' E 000°39'4 8.5
2017-Dec-11 19:51N 50°39' E 000°44'7 8.4
2017-Dec-11 18:58N 50°43' E 000°53'4 7.9
2017-Dec-11 18:30N 50°44' E 000°58'9 7.7
2017-Dec-11 17:24N 50°49' E 001°10'3 7.2
2017-Dec-11 16:59N 50°51' E 001°14'4 8.0
2017-Dec-11 16:31N 50°54' E 001°17'4 8.6
2017-Dec-11 16:00N 50°57' E 001°21'5 9.4
2017-Dec-11 15:30N 51°01' E 001°26'510.1
2017-Dec-11 15:00N 51°04' E 001°32'510.5
2017-Dec-11 14:30N 51°08' E 001°38'510.2
2017-Dec-11 14:00N 51°12' E 001°43'510.1
2017-Dec-11 13:31N 51°16' E 001°48'5 9.4
2017-Dec-11 13:00N 51°20' E 001°52'4 9.0
2017-Dec-11 12:30N 51°24' E 001°56'4 8.7
2017-Dec-11 12:00N 51°27' E 002°00'4 8.3
2017-Dec-11 11:29N 51°31' E 002°04'4 8.0
2017-Dec-11 11:00N 51°34' E 002°08'4 7.8
2017-Dec-11 10:28N 51°37' E 002°12'144 9.1
2017-Dec-10 18:43N 53°28' E 004°42'2 9.4
2017-Dec-10 18:30N 53°29' E 004°45'5 9.9
2017-Dec-10 18:00N 53°31' E 004°53'510.1
2017-Dec-10 17:30N 53°33' E 005°01'510.2
2017-Dec-10 17:00N 53°35' E 005°09'98 8.8
2017-Dec-10 05:55N 54°01' E 007°48'3 8.6
2017-Dec-10 05:30N 54°01' E 007°54'4 8.4
2017-Dec-10 05:00N 54°01' E 008°02'4 8.1
2017-Dec-10 04:30N 54°00' E 008°09'4 7.6
2017-Dec-10 04:00N 54°01' E 008°15'4 8.0
2017-Dec-10 03:30N 53°60' E 008°22'4 8.0
2017-Dec-10 03:00N 53°59' E 008°28'3 6.5
2017-Dec-10 02:30N 53°58' E 008°34'4 7.1
2017-Dec-10 02:01N 53°57' E 008°39'4 7.2
2017-Dec-10 01:30N 53°54' E 008°42'4 8.9
2017-Dec-10 01:00N 53°51' E 008°48'510.8
2017-Dec-10 00:30N 53°51' E 008°57'611.6
2017-Dec-10 00:00N 53°53' E 009°06'2 3.4
2017-Dec-09 23:30N 53°54' E 009°09'0 0.2
2017-Dec-09 23:00N 53°54' E 009°09'2 3.5
2017-Dec-09 22:31N 53°55' E 009°11'4 8.1
2017-Dec-09 22:01N 53°58' E 009°15'4 8.2
2017-Dec-09 21:31N 54°02' E 009°18'1 1.6
2017-Dec-09 21:00N 54°03' E 009°18'4 7.4
2017-Dec-09 20:29N 54°06' E 009°20'3 5.9
2017-Dec-09 20:00N 54°09' E 009°22'0 0.0
2017-Dec-09 19:30N 54°09' E 009°22'1 1.5
2017-Dec-09 19:00N 54°09' E 009°23'3 6.3
2017-Dec-09 18:30N 54°11' E 009°28'3 6.5
2017-Dec-09 18:00N 54°12' E 009°33'3 6.7
2017-Dec-09 17:30N 54°14' E 009°37'4 7.3
2017-Dec-09 17:00N 54°17' E 009°40'3 6.7
2017-Dec-09 16:30N 54°20' E 009°44'4 8.3
2017-Dec-09 16:00N 54°22' E 009°50'19 5.3
2017-Dec-09 12:20N 54°30' E 010°20'3 9.3
2017-Dec-09 12:00N 54°32' E 010°25'5 9.3
2017-Dec-09 11:30N 54°34' E 010°32'5 9.2
2017-Dec-09 11:00N 54°35' E 010°40'4 9.0
2017-Dec-09 10:30N 54°35' E 010°47'4 8.7
2017-Dec-09 10:00N 54°36' E 010°55'4 8.3
2017-Dec-09 09:30N 54°36' E 011°02'4 8.1
2017-Dec-09 09:00N 54°36' E 011°09'4 8.3
2017-Dec-09 08:30N 54°35' E 011°15'4 8.5
2017-Dec-09 08:00N 54°33' E 011°22'4 8.3
2017-Dec-09 07:30N 54°31' E 011°29'4 8.3
2017-Dec-09 07:00N 54°30' E 011°35'4 8.2
2017-Dec-09 06:30N 54°28' E 011°42'6 7.9
2017-Dec-09 05:46N 54°27' E 011°52'2 7.7
2017-Dec-09 05:30N 54°27' E 011°55'4 7.8
2017-Dec-09 05:00N 54°27' E 012°02'4 7.7
2017-Dec-09 04:29N 54°27' E 012°09'3 7.2
2017-Dec-09 04:00N 54°31' E 012°11'57 7.6
2017-Dec-08 20:31N 54°59' E 013°38'3 8.1
2017-Dec-08 20:11N 54°59' E 013°42'2 8.4
2017-Dec-08 19:54N 55°00' E 013°46'4 8.5
2017-Dec-08 19:28N 55°02' E 013°52'7 8.3
2017-Dec-08 18:34N 55°04' E 014°04'1 8.2
2017-Dec-08 18:26N 55°05' E 014°06'4 8.2
2017-Dec-08 18:00N 55°08' E 014°10'5 8.6
2017-Dec-08 17:29N 55°11' E 014°15'4 8.7
2017-Dec-08 17:00N 55°14' E 014°19'4 8.6
2017-Dec-08 16:30N 55°18' E 014°24'5 8.4
2017-Dec-08 15:57N 55°21' E 014°29'4 8.6
2017-Dec-08 15:30N 55°24' E 014°34'4 8.6
2017-Dec-08 14:59N 55°27' E 014°40'4 8.6
2017-Dec-08 14:30N 55°29' E 014°46'4 8.2
2017-Dec-08 13:59N 55°31' E 014°53'4 8.3
2017-Dec-08 13:30N 55°34' E 014°59'4 8.4
2017-Dec-08 12:58N 55°36' E 015°05'4 8.3
2017-Dec-08 12:30N 55°38' E 015°11'4 8.1
2017-Dec-08 12:01N 55°40' E 015°17'4 8.0
2017-Dec-08 11:31N 55°42' E 015°23'4 7.8
2017-Dec-08 11:00N 55°44' E 015°29'4 8.1
2017-Dec-08 10:30N 55°46' E 015°36'4 7.8
2017-Dec-08 10:00N 55°48' E 015°42'4 7.8
2017-Dec-08 09:31N 55°50' E 015°48'4 8.0
2017-Dec-08 09:00N 55°52' E 015°54'4 7.7
2017-Dec-08 08:30N 55°54' E 015°59'4 7.6
2017-Dec-08 08:01N 55°56' E 016°05'4 7.8
2017-Dec-08 07:30N 55°58' E 016°11'4 7.9
2017-Dec-08 07:00N 55°60' E 016°17'4 7.7
2017-Dec-08 06:31N 56°02' E 016°23'4 7.6
2017-Dec-08 05:59N 56°04' E 016°29'  
2017-Dec-04 10:30N 59°20' E 018°10'  
Track history (hours):
 
Tides and Currents Weather Stations Pressure Air Temp Water Temp Dewpoint Dewpoint Depression Visibility Wind Speed Wind Dir Waves Ship Positions

Paula Anna

Last reported at 2017-Dec-13 07:19 UTC. Time now 2017-Dec-15 11:50 UTC.
Position N 49°31' E 000°45'.

Length 107 m; draft 5.5 m.

Type: Cargo ship. MMSI: 212211000.

Date/timePositionNaut miles runAvg speedWind from/ knotsBaromVisibWave heightAir tempDewpointWater temp
2017-Dec-13 07:19N 49°31' E 000°45'0 0.0
2017-Dec-13 06:49N 49°31' E 000°45'0 0.0
2017-Dec-13 06:28N 49°31' E 000°45'0 0.0
2017-Dec-13 05:58N 49°31' E 000°45'0 0.3
2017-Dec-13 05:30N 49°31' E 000°45'4 7.2
2017-Dec-13 05:00N 49°30' E 000°40'510.3
2017-Dec-13 04:30N 49°26' E 000°35'5 9.8
2017-Dec-13 04:00N 49°29' E 000°29'612.6
2017-Dec-13 03:30N 49°26' E 000°20'611.9
2017-Dec-13 03:00N 49°26' E 000°11'510.8
2017-Dec-13 02:30N 49°27' E 000°03'5 9.6
2017-Dec-13 02:01N 49°28' W 000°04'1 0.1
2017-Dec-12 15:15N 49°28' W 000°06'0 0.0
2017-Dec-12 14:57N 49°28' W 000°06'0 0.0
2017-Dec-12 14:27N 49°28' W 000°06'0 0.0
2017-Dec-12 13:57N 49°28' W 000°06'0 0.0
2017-Dec-12 13:27N 49°28' W 000°06'0 0.0
2017-Dec-12 12:57N 49°28' W 000°06'0 0.1
2017-Dec-12 12:27N 49°28' W 000°06'0 0.1
2017-Dec-12 11:57N 49°28' W 000°06'0 0.2
2017-Dec-12 11:27N 49°28' W 000°06'0 0.0
2017-Dec-12 10:57N 49°28' W 000°06'0 0.0
2017-Dec-12 10:30N 49°28' W 000°06'0 0.0
2017-Dec-12 10:00N 49°28' W 000°06'0 0.1
2017-Dec-12 09:27N 49°28' W 000°06'1 2.0
2017-Dec-12 09:00N 49°29' W 000°07'3 6.7
2017-Dec-12 08:30N 49°30' W 000°11'3 6.8
2017-Dec-12 08:00N 49°32' W 000°16'4 7.1
2017-Dec-12 07:30N 49°34' W 000°20'4 7.5
2017-Dec-12 07:00N 49°37' W 000°25'4 7.4
2017-Dec-12 06:30N 49°40' W 000°26'4 8.1
2017-Dec-12 06:01N 49°44' W 000°26'4 7.9
2017-Dec-12 05:30N 49°48' W 000°26'4 7.5
2017-Dec-12 05:00N 49°52' W 000°24'4 7.2
2017-Dec-12 04:30N 49°55' W 000°22'3 6.9
2017-Dec-12 04:00N 49°58' W 000°20'3 6.8
2017-Dec-12 03:30N 50°02' W 000°19'3 6.8
2017-Dec-12 03:00N 50°05' W 000°17'4 6.9
2017-Dec-12 02:29N 50°08' W 000°16'3 6.9
2017-Dec-12 02:00N 50°11' W 000°13'8 7.6
2017-Dec-12 00:55N 50°19' W 000°10'3 7.8
2017-Dec-12 00:31N 50°22' W 000°08'4 7.8
2017-Dec-12 00:00N 50°26' W 000°06'4 7.3
2017-Dec-11 23:30N 50°28' W 000°01'4 8.1
2017-Dec-11 23:00N 50°29' E 000°05'4 8.3
2017-Dec-11 22:30N 50°30' E 000°12'15 8.4
2017-Dec-11 20:42N 50°35' E 000°34'3 8.5
2017-Dec-11 20:18N 50°36' E 000°39'4 8.5
2017-Dec-11 19:51N 50°39' E 000°44'7 8.4
2017-Dec-11 18:58N 50°43' E 000°53'4 7.9
2017-Dec-11 18:30N 50°44' E 000°58'9 7.7
2017-Dec-11 17:24N 50°49' E 001°10'3 7.2
2017-Dec-11 16:59N 50°51' E 001°14'4 8.0
2017-Dec-11 16:31N 50°54' E 001°17'4 8.6
2017-Dec-11 16:00N 50°57' E 001°21'5 9.4
2017-Dec-11 15:30N 51°01' E 001°26'510.1
2017-Dec-11 15:00N 51°04' E 001°32'510.5
2017-Dec-11 14:30N 51°08' E 001°38'510.2
2017-Dec-11 14:00N 51°12' E 001°43'510.1
2017-Dec-11 13:31N 51°16' E 001°48'5 9.4
2017-Dec-11 13:00N 51°20' E 001°52'4 9.0
2017-Dec-11 12:30N 51°24' E 001°56'4 8.7
2017-Dec-11 12:00N 51°27' E 002°00'4 8.3
2017-Dec-11 11:29N 51°31' E 002°04'4 8.0
2017-Dec-11 11:00N 51°34' E 002°08'4 7.8
2017-Dec-11 10:28N 51°37' E 002°12'144 9.1
2017-Dec-10 18:43N 53°28' E 004°42'2 9.4
2017-Dec-10 18:30N 53°29' E 004°45'5 9.9
2017-Dec-10 18:00N 53°31' E 004°53'510.1
2017-Dec-10 17:30N 53°33' E 005°01'510.2
2017-Dec-10 17:00N 53°35' E 005°09'98 8.8
2017-Dec-10 05:55N 54°01' E 007°48'3 8.6
2017-Dec-10 05:30N 54°01' E 007°54'4 8.4
2017-Dec-10 05:00N 54°01' E 008°02'4 8.1
2017-Dec-10 04:30N 54°00' E 008°09'4 7.6
2017-Dec-10 04:00N 54°01' E 008°15'4 8.0
2017-Dec-10 03:30N 53°60' E 008°22'4 8.0
2017-Dec-10 03:00N 53°59' E 008°28'3 6.5
2017-Dec-10 02:30N 53°58' E 008°34'4 7.1
2017-Dec-10 02:01N 53°57' E 008°39'4 7.2
2017-Dec-10 01:30N 53°54' E 008°42'4 8.9
2017-Dec-10 01:00N 53°51' E 008°48'510.8
2017-Dec-10 00:30N 53°51' E 008°57'611.6
2017-Dec-10 00:00N 53°53' E 009°06'2 3.4
2017-Dec-09 23:30N 53°54' E 009°09'0 0.2
2017-Dec-09 23:00N 53°54' E 009°09'2 3.5
2017-Dec-09 22:31N 53°55' E 009°11'4 8.1
2017-Dec-09 22:01N 53°58' E 009°15'4 8.2
2017-Dec-09 21:31N 54°02' E 009°18'1 1.6
2017-Dec-09 21:00N 54°03' E 009°18'4 7.4
2017-Dec-09 20:29N 54°06' E 009°20'3 5.9
2017-Dec-09 20:00N 54°09' E 009°22'0 0.0
2017-Dec-09 19:30N 54°09' E 009°22'1 1.5
2017-Dec-09 19:00N 54°09' E 009°23'3 6.3
2017-Dec-09 18:30N 54°11' E 009°28'3 6.5
2017-Dec-09 18:00N 54°12' E 009°33'3 6.7
2017-Dec-09 17:30N 54°14' E 009°37'4 7.3
2017-Dec-09 17:00N 54°17' E 009°40'3 6.7
2017-Dec-09 16:30N 54°20' E 009°44'4 8.3
2017-Dec-09 16:00N 54°22' E 009°50'19 5.3
2017-Dec-09 12:20N 54°30' E 010°20'3 9.3
2017-Dec-09 12:00N 54°32' E 010°25'5 9.3
2017-Dec-09 11:30N 54°34' E 010°32'5 9.2
2017-Dec-09 11:00N 54°35' E 010°40'4 9.0
2017-Dec-09 10:30N 54°35' E 010°47'4 8.7
2017-Dec-09 10:00N 54°36' E 010°55'4 8.3
2017-Dec-09 09:30N 54°36' E 011°02'4 8.1
2017-Dec-09 09:00N 54°36' E 011°09'4 8.3
2017-Dec-09 08:30N 54°35' E 011°15'4 8.5
2017-Dec-09 08:00N 54°33' E 011°22'4 8.3
2017-Dec-09 07:30N 54°31' E 011°29'4 8.3
2017-Dec-09 07:00N 54°30' E 011°35'4 8.2
2017-Dec-09 06:30N 54°28' E 011°42'6 7.9
2017-Dec-09 05:46N 54°27' E 011°52'2 7.7
2017-Dec-09 05:30N 54°27' E 011°55'4 7.8
2017-Dec-09 05:00N 54°27' E 012°02'4 7.7
2017-Dec-09 04:29N 54°27' E 012°09'3 7.2
2017-Dec-09 04:00N 54°31' E 012°11'57 7.6
2017-Dec-08 20:31N 54°59' E 013°38'3 8.1
2017-Dec-08 20:11N 54°59' E 013°42'2 8.4
2017-Dec-08 19:54N 55°00' E 013°46'4 8.5
2017-Dec-08 19:28N 55°02' E 013°52'7 8.3
2017-Dec-08 18:34N 55°04' E 014°04'1 8.2
2017-Dec-08 18:26N 55°05' E 014°06'4 8.2
2017-Dec-08 18:00N 55°08' E 014°10'5 8.6
2017-Dec-08 17:29N 55°11' E 014°15'4 8.7
2017-Dec-08 17:00N 55°14' E 014°19'4 8.6
2017-Dec-08 16:30N 55°18' E 014°24'5 8.4
2017-Dec-08 15:57N 55°21' E 014°29'4 8.6
2017-Dec-08 15:30N 55°24' E 014°34'4 8.6
2017-Dec-08 14:59N 55°27' E 014°40'4 8.6
2017-Dec-08 14:30N 55°29' E 014°46'4 8.2
2017-Dec-08 13:59N 55°31' E 014°53'4 8.3
2017-Dec-08 13:30N 55°34' E 014°59'4 8.4
2017-Dec-08 12:58N 55°36' E 015°05'4 8.3
2017-Dec-08 12:30N 55°38' E 015°11'4 8.1
2017-Dec-08 12:01N 55°40' E 015°17'4 8.0
2017-Dec-08 11:31N 55°42' E 015°23'4 7.8
2017-Dec-08 11:00N 55°44' E 015°29'4 8.1
2017-Dec-08 10:30N 55°46' E 015°36'4 7.8
2017-Dec-08 10:00N 55°48' E 015°42'4 7.8
2017-Dec-08 09:31N 55°50' E 015°48'4 8.0
2017-Dec-08 09:00N 55°52' E 015°54'4 7.7
2017-Dec-08 08:30N 55°54' E 015°59'4 7.6
2017-Dec-08 08:01N 55°56' E 016°05'4 7.8
2017-Dec-08 07:30N 55°58' E 016°11'4 7.9
2017-Dec-08 07:00N 55°60' E 016°17'4 7.7
2017-Dec-08 06:31N 56°02' E 016°23'4 7.6
2017-Dec-08 05:59N 56°04' E 016°29'  
2017-Dec-04 10:30N 59°20' E 018°10'  

Dump ship's entire track history